Time;durP1;ratioP1;P1;durP2;ratioP2;P2;SDS_P1;SDS_P2;PMS_P1;PMS_P2;Temp;Humidity;BMP_temperature;BMP_pressure;BME280_temperature;BME280_humidity;BME280_pressure;Samples;Min_cycle;Max_cycle;Signal;HPM_P1;HPM_P2
2022/03/18 00:02:24;;;;;;;14.63;9.75;;;;;;;-1.53;82.24;95363.00;4963433;28;20631;-74
2022/03/18 00:04:54;;;;;;;18.27;10.05;;;;;;;-1.61;82.34;95356.16;4963202;28;20022;-73
2022/03/18 00:07:20;;;;;;;16.15;10.13;;;;;;;-1.86;82.34;95323.84;4964255;28;20066;-74
2022/03/18 00:09:50;;;;;;;11.63;7.75;;;;;;;-1.73;81.72;95351.72;4974138;28;20911;-74
2022/03/18 00:12:16;;;;;;;13.40;7.88;;;;;;;-1.88;81.27;95325.81;4974858;28;20819;-75
2022/03/18 00:14:43;;;;;;;14.35;7.63;;;;;;;-1.72;80.67;95361.16;4958567;28;20457;-74
2022/03/18 00:17:11;;;;;;;15.07;8.30;;;;;;;-2.11;81.39;95348.84;4973361;28;20030;-72
2022/03/18 00:19:40;;;;;;;12.45;7.82;;;;;;;-2.27;81.67;95342.19;4964876;28;20031;-74
2022/03/18 00:22:06;;;;;;;12.73;8.50;;;;;;;-1.99;81.53;95371.53;4965867;28;20038;-72
2022/03/18 00:24:33;;;;;;;11.40;7.28;;;;;;;-1.90;81.19;95378.16;4984602;28;20037;-73
2022/03/18 00:27:06;;;;;;;13.25;7.75;;;;;;;-1.91;81.30;95381.81;4963056;28;20039;-72
2022/03/18 00:29:32;;;;;;;12.05;7.80;;;;;;;-1.95;81.34;95375.34;4967223;28;20592;-73
2022/03/18 00:31:58;;;;;;;13.90;7.53;;;;;;;-2.13;80.86;95349.03;4953399;28;20551;-72
2022/03/18 00:34:24;;;;;;;14.60;9.50;;;;;;;-2.10;81.16;95368.72;4967548;28;20318;-73
2022/03/18 00:36:50;;;;;;;14.43;9.10;;;;;;;-2.31;81.36;95336.56;4964241;28;20494;-71
2022/03/18 00:39:16;;;;;;;18.05;10.25;;;;;;;-2.22;81.46;95368.47;4956594;28;20506;-72
2022/03/18 00:41:41;;;;;;;14.90;9.00;;;;;;;-2.45;81.53;95315.88;4969935;28;20049;-73
2022/03/18 00:44:07;;;;;;;15.60;9.27;;;;;;;-2.02;81.37;95371.94;4960881;28;20015;-74
2022/03/18 00:46:34;;;;;;;15.20;9.25;;;;;;;-1.91;81.58;95387.03;4960172;28;20379;-74
2022/03/18 00:54:28;;;;;;;16.40;9.55;;;;;;;-2.00;81.14;95387.41;4955007;28;20556;-74
2022/03/18 00:56:53;;;;;;;13.23;9.23;;;;;;;-1.97;81.26;95392.22;4968450;28;20046;-74
2022/03/18 00:59:19;;;;;;;13.65;9.50;;;;;;;-2.16;81.04;95367.69;4954956;28;20030;-74
2022/03/18 01:01:44;;;;;;;14.43;8.75;;;;;;;-2.06;80.89;95383.78;4963172;28;20181;-75
2022/03/18 01:04:10;;;;;;;15.18;8.88;;;;;;;-2.16;81.14;95367.69;4956394;28;20529;-74
2022/03/18 01:06:36;;;;;;;13.65;9.63;;;;;;;-2.08;80.74;95388.38;4969729;28;20042;-75
2022/03/18 01:09:03;;;;;;;13.75;9.27;;;;;;;-1.91;80.99;95407.88;4963203;28;20573;-75
2022/03/18 01:11:30;;;;;;;17.55;10.00;;;;;;;-2.00;80.63;95403.03;4962642;28;20031;-74
2022/03/18 01:13:55;;;;;;;15.93;9.50;;;;;;;-1.96;80.67;95399.84;4970149;28;20473;-75
2022/03/18 01:16:22;;;;;;;16.95;10.85;;;;;;;-1.96;80.50;95399.84;4956875;28;20109;-72
2022/03/18 01:18:48;;;;;;;15.90;9.95;;;;;;;-2.05;80.83;95395.00;4961791;28;20612;-72
2022/03/18 01:21:13;;;;;;;15.30;9.18;;;;;;;-1.85;80.48;95380.22;4962229;28;20034;-71
2022/03/18 01:23:39;;;;;;;15.80;9.20;;;;;;;-1.72;79.76;95401.09;4963961;28;20033;-74
2022/03/18 01:26:05;;;;;;;14.38;9.32;;;;;;;-1.66;79.62;95396.91;4963365;28;20031;-74
2022/03/18 01:28:30;;;;;;;15.40;9.02;;;;;;;-1.99;79.60;95395.00;4960905;28;20156;-75
2022/03/18 01:30:56;;;;;;;17.98;8.93;;;;;;;-2.02;80.22;95411.06;4964074;28;20541;-75
2022/03/18 01:33:23;;;;;;;15.07;9.00;;;;;;;-1.98;80.20;95386.19;4963070;28;20050;-73
2022/03/18 01:35:48;;;;;;;16.67;9.02;;;;;;;-1.84;80.36;95382.59;4969470;28;20137;-74
2022/03/18 01:38:14;;;;;;;17.42;8.98;;;;;;;-1.69;79.79;95384.22;4953300;28;20026;-74
2022/03/18 01:40:39;;;;;;;17.73;10.18;;;;;;;-1.89;79.16;95374.56;4966104;28;20038;-75
2022/03/18 01:43:12;;;;;;;16.15;8.48;;;;;;;-1.59;79.23;95369.81;4957873;28;20653;-75
2022/03/18 01:45:38;;;;;;;14.55;9.32;;;;;;;-1.47;78.45;95394.31;4964850;28;20038;-74
2022/03/18 01:48:05;;;;;;;15.55;9.60;;;;;;;-1.60;78.47;95396.09;4963861;28;20632;-74
2022/03/18 01:50:31;;;;;;;16.63;9.73;;;;;;;-1.68;78.58;95380.63;4965002;28;20054;-74
2022/03/18 01:52:57;;;;;;;14.85;8.57;;;;;;;-1.63;78.55;95399.09;4962966;28;20065;-75
2022/03/18 01:55:24;;;;;;;12.88;8.13;;;;;;;-1.41;78.14;95393.50;4960304;28;20077;-75
2022/03/18 01:57:51;;;;;;;12.55;8.52;;;;;;;-1.32;77.92;95381.06;4966379;28;20046;-74
2022/03/18 02:00:21;;;;;;;15.15;9.07;;;;;;;-1.23;77.69;95400.75;4964160;28;20105;-75
2022/03/18 02:02:47;;;;;;;13.50;8.85;;;;;;;-1.25;77.15;95402.75;4957796;28;20473;-75
2022/03/18 02:05:13;;;;;;;15.32;9.07;;;;;;;-1.67;77.81;95398.69;4959256;28;20029;-75
2022/03/18 02:07:39;;;;;;;12.85;8.38;;;;;;;-1.66;78.03;95386.47;4965477;28;20043;-75
2022/03/18 02:10:06;;;;;;;17.00;9.18;;;;;;;-1.45;78.10;95402.72;4973330;28;20387;-74
2022/03/18 02:12:32;;;;;;;16.30;10.63;;;;;;;-1.76;78.26;95368.59;4982156;28;20418;-74
2022/03/18 02:14:57;;;;;;;12.65;9.50;;;;;;;-1.64;78.65;95402.72;4958743;28;20470;-75
2022/03/18 02:17:23;;;;;;;16.40;10.52;;;;;;;-1.56;77.94;95381.66;4959784;28;20490;-75
2022/03/18 02:19:49;;;;;;;18.20;10.40;;;;;;;-1.68;77.96;95402.31;4964246;28;20595;-74
2022/03/18 02:22:19;;;;;;;43.08;15.85;;;;;;;-1.76;78.18;95410.31;4961763;28;20085;-74
2022/03/18 02:24:46;;;;;;;32.00;15.98;;;;;;;-1.87;78.45;95398.66;4956660;28;20042;-74
2022/03/18 02:27:12;;;;;;;24.60;12.20;;;;;;;-1.85;78.65;95412.28;4966417;28;20394;-74
2022/03/18 02:29:38;;;;;;;22.08;12.60;;;;;;;-1.73;78.33;95409.13;4959885;28;20407;-72
2022/03/18 02:32:05;;;;;;;21.70;10.40;;;;;;;-1.71;77.81;95401.91;4966398;28;20029;-71
2022/03/18 02:34:32;;;;;;;19.13;11.30;;;;;;;-2.00;77.87;95411.66;4969526;28;20042;-72
2022/03/18 02:36:58;;;;;;;19.58;9.93;;;;;;;-1.97;77.57;95398.22;4955405;28;20046;-72
2022/03/18 02:39:23;;;;;;;22.35;11.68;;;;;;;-2.05;76.98;95411.44;4964845;28;20533;-71
2022/03/18 02:41:49;;;;;;;18.38;10.88;;;;;;;-2.25;77.71;95400.16;4969031;28;20193;-74
2022/03/18 02:44:15;;;;;;;15.30;9.82;;;;;;;-2.08;77.70;95426.66;4955317;28;20441;-75
2022/03/18 02:46:40;;;;;;;18.08;11.57;;;;;;;-2.37;77.91;95399.09;4975719;28;20967;-74
2022/03/18 02:49:06;;;;;;;20.92;12.48;;;;;;;-2.20;78.01;95439.47;4959738;28;20458;-74
2022/03/18 02:51:32;;;;;;;19.02;11.13;;;;;;;-2.11;77.90;95422.66;4971823;28;20038;-74
2022/03/18 02:53:58;;;;;;;20.60;11.82;;;;;;;-2.18;78.43;95432.25;4966054;28;20126;-74
2022/03/18 02:56:24;;;;;;;21.27;12.10;;;;;;;-2.04;78.46;95438.31;4991049;28;20026;-74
2022/03/18 02:58:50;;;;;;;20.45;11.68;;;;;;;-2.52;78.30;95361.94;4967332;28;20074;-73
2022/03/18 03:01:16;;;;;;;23.13;11.80;;;;;;;-2.23;78.79;95426.81;4967225;28;20051;-74
2022/03/18 03:03:41;;;;;;;20.58;12.50;;;;;;;-2.01;78.62;95430.91;4969759;28;20595;-71
2022/03/18 03:08:51;;;;;;;18.58;11.02;;;;;;;-2.33;79.40;95423.75;4960290;28;20068;-75
2022/03/18 03:11:16;;;;;;;21.30;12.23;;;;;;;-2.09;79.62;95457.13;4959638;28;20461;-75
2022/03/18 03:13:43;;;;;;;20.60;13.18;;;;;;;-1.88;79.30;95459.63;4965031;28;20524;-74
2022/03/18 03:16:08;;;;;;;21.88;12.10;;;;;;;-1.99;79.05;95420.28;4959858;28;20190;-75
2022/03/18 03:18:34;;;;;;;23.88;13.75;;;;;;;-2.02;78.58;95424.09;4969101;28;20509;-74
2022/03/18 03:21:00;;;;;;;23.45;12.52;;;;;;;-1.83;78.57;95441.59;4961053;28;20961;-75
2022/03/18 03:23:25;;;;;;;21.20;12.90;;;;;;;-1.97;78.69;95447.78;4973060;28;20548;-73
2022/03/18 03:25:56;;;;;;;27.27;13.68;;;;;;;-1.99;78.43;95457.59;4965181;28;20082;-75
2022/03/18 03:28:22;;;;;;;22.60;12.55;;;;;;;-2.00;78.44;95461.22;4984850;28;20063;-75
2022/03/18 03:30:48;;;;;;;27.55;14.88;;;;;;;-2.46;78.58;95408.06;4966024;28;20146;-74
2022/03/18 03:33:16;;;;;;;25.13;15.20;;;;;;;-2.10;78.25;95467.78;4966780;28;20069;-73
2022/03/18 03:35:42;;;;;;;29.48;15.13;;;;;;;-2.31;78.49;95477.31;4966620;28;20050;-74
2022/03/18 03:38:10;;;;;;;28.17;16.08;;;;;;;-2.44;78.35;95456.41;4972834;28;20041;-73
2022/03/18 03:40:36;;;;;;;31.45;15.68;;;;;;;-2.44;78.85;95473.84;4962865;28;20588;-75
2022/03/18 03:43:01;;;;;;;34.13;15.43;;;;;;;-2.59;79.33;95467.94;4966829;28;20035;-75
2022/03/18 03:45:27;;;;;;;31.38;15.73;;;;;;;-2.56;79.74;95476.16;4957999;28;20043;-76
2022/03/18 03:47:52;;;;;;;35.78;17.23;;;;;;;-2.47;79.89;95469.78;4973619;28;20056;-75
2022/03/18 03:50:18;;;;;;;28.30;15.82;;;;;;;-2.46;80.38;95486.22;4962837;28;20555;-75
2022/03/18 03:52:44;;;;;;;30.10;16.02;;;;;;;-2.30;80.11;95491.16;4971118;28;20042;-75
2022/03/18 03:55:11;;;;;;;27.02;15.63;;;;;;;-2.59;79.96;95496.56;4967065;28;20047;-74
2022/03/18 03:57:38;;;;;;;29.73;13.60;;;;;;;-2.63;80.03;95500.56;5001435;28;20383;-72
2022/03/18 04:00:06;;;;;;;27.60;13.40;;;;;;;-2.60;79.69;95492.34;4957050;28;20031;-75
2022/03/18 04:02:31;;;;;;;23.95;12.57;;;;;;;-2.71;79.77;95485.88;4979366;28;20030;-74
2022/03/18 04:04:57;;;;;;;31.88;13.40;;;;;;;-2.85;79.73;95482.38;4966473;28;20026;-74
2022/03/18 04:07:26;;;;;;;21.77;13.95;;;;;;;-2.60;79.41;95508.00;4958915;28;20069;-73
2022/03/18 04:09:54;;;;;;;25.23;13.15;;;;;;;-2.72;79.03;95485.06;4984881;28;20118;-75
2022/03/18 04:12:20;;;;;;;18.73;12.90;;;;;;;-3.26;78.35;95442.38;4963236;28;20034;-74
2022/03/18 04:14:47;;;;;;;21.52;11.88;;;;;;;-2.79;78.54;95514.66;4965929;28;20054;-74
2022/03/18 04:17:12;;;;;;;20.63;11.95;;;;;;;-2.91;78.95;95519.56;4966432;28;20041;-74
2022/03/18 04:19:38;;;;;;;20.90;12.75;;;;;;;-2.97;79.38;95519.50;4971518;28;20208;-74
2022/03/18 04:22:04;;;;;;;19.55;13.13;;;;;;;-3.03;80.06;95520.28;4967060;28;20454;-72
2022/03/18 04:24:30;;;;;;;19.80;12.82;;;;;;;-2.79;80.08;95522.47;4971095;28;20049;-75
2022/03/18 04:26:55;;;;;;;19.95;13.90;;;;;;;-2.79;79.79;95523.28;4969993;28;20377;-75
2022/03/18 04:29:21;;;;;;;21.20;13.55;;;;;;;-2.89;79.93;95528.00;4971780;28;20027;-73
2022/03/18 04:31:46;;;;;;;24.30;12.18;;;;;;;-2.70;79.98;95522.16;4967558;28;20101;-75
2022/03/18 04:34:12;;;;;;;26.73;14.50;;;;;;;-2.77;79.48;95521.28;4970966;28;20039;-73
2022/03/18 04:36:38;;;;;;;24.65;14.82;;;;;;;-2.82;79.26;95502.81;4965241;28;20038;-74
2022/03/18 04:39:03;;;;;;;27.10;15.02;;;;;;;-2.87;78.97;95506.97;4968051;28;20046;-74
2022/03/18 04:41:29;;;;;;;26.67;15.20;;;;;;;-2.66;78.78;95519.16;4968342;28;20433;-75
2022/03/18 04:43:54;;;;;;;20.80;13.68;;;;;;;-2.49;78.02;95523.91;4968976;28;20030;-75
2022/03/18 04:46:20;;;;;;;22.42;13.32;;;;;;;-2.50;77.71;95521.47;4965768;28;20093;-75
2022/03/18 04:48:45;;;;;;;24.95;13.40;;;;;;;-2.61;77.18;95503.75;4967037;28;20046;-74
2022/03/18 04:51:10;;;;;;;20.77;13.02;;;;;;;-2.53;76.85;95511.44;5000054;28;20469;-74
2022/03/18 04:53:36;;;;;;;22.75;12.60;;;;;;;-2.61;76.27;95533.22;4969038;28;20082;-74
2022/03/18 04:56:02;;;;;;;23.38;12.40;;;;;;;-2.67;76.24;95533.16;4966042;28;20385;-74
2022/03/18 04:58:27;;;;;;;17.30;12.18;;;;;;;-2.88;76.95;95515.81;4963688;28;20395;-73
2022/03/18 05:00:53;;;;;;;22.30;12.65;;;;;;;-2.92;76.85;95549.19;4969483;28;20042;-74
2022/03/18 05:03:19;;;;;;;25.02;12.38;;;;;;;-2.96;76.85;95537.56;4964989;28;20057;-72
2022/03/18 05:05:45;;;;;;;21.33;10.07;;;;;;;-2.90;76.67;95526.41;4966856;28;20453;-74
2022/03/18 05:08:10;;;;;;;14.65;11.13;;;;;;;-2.77;76.17;95539.50;4965651;28;20503;-74
2022/03/18 05:10:37;;;;;;;17.58;10.82;;;;;;;-3.10;75.75;95522.81;4966816;28;20050;-75
2022/03/18 05:13:02;;;;;;;15.98;10.27;;;;;;;-2.86;75.56;95527.63;4982216;28;20082;-74
2022/03/18 05:15:28;;;;;;;19.00;10.50;;;;;;;-2.92;75.81;95548.38;4963840;28;20042;-75
2022/03/18 05:17:54;;;;;;;15.35;11.07;;;;;;;-2.93;76.30;95545.00;4966519;28;20457;-75
2022/03/18 05:20:20;;;;;;;21.65;10.52;;;;;;;-2.99;76.21;95527.53;4961370;28;20500;-75
2022/03/18 05:22:51;;;;;;;17.25;11.70;;;;;;;-2.86;76.93;95556.28;4969209;28;20116;-73
2022/03/18 05:25:16;;;;;;;15.57;10.05;;;;;;;-3.02;76.41;95538.28;4968302;28;20031;-74
2022/03/18 05:27:44;;;;;;;18.55;10.68;;;;;;;-3.14;76.95;95539.78;4961174;28;20109;-73
2022/03/18 05:30:11;;;;;;;19.10;10.55;;;;;;;-2.93;76.50;95532.00;4958481;28;20035;-75
2022/03/18 05:32:37;;;;;;;17.48;10.25;;;;;;;-2.94;76.26;95529.56;4970007;28;20030;-74
2022/03/18 05:35:04;;;;;;;25.02;11.88;;;;;;;-3.05;76.13;95537.88;4959340;28;20053;-74
2022/03/18 05:37:29;;;;;;;18.48;10.55;;;;;;;-2.83;75.88;95537.66;4968072;28;20401;-74
2022/03/18 05:39:55;;;;;;;18.65;11.25;;;;;;;-2.76;74.80;95529.91;4963795;28;20175;-74
2022/03/18 05:42:20;;;;;;;20.05;12.05;;;;;;;-2.72;73.84;95547.56;4955817;28;20037;-74
2022/03/18 05:44:45;;;;;;;17.70;10.48;;;;;;;-2.76;72.69;95522.91;4967496;28;20485;-75
2022/03/18 05:47:11;;;;;;;14.43;8.85;;;;;;;-2.56;70.63;95540.47;4966015;28;20022;-74
2022/03/18 05:49:36;;;;;;;17.58;9.65;;;;;;;-2.42;70.52;95556.00;4963462;28;20037;-74
2022/03/18 05:52:05;;;;;;;17.77;9.63;;;;;;;-2.49;70.57;95559.59;4968617;28;20046;-74
2022/03/18 05:54:30;;;;;;;22.52;12.32;;;;;;;-2.77;72.11;95547.31;4963664;28;20454;-72
2022/03/18 05:56:56;;;;;;;16.30;11.27;;;;;;;-2.51;72.84;95561.56;4969525;28;20032;-71
2022/03/18 05:59:22;;;;;;;19.73;10.85;;;;;;;-2.63;72.56;95569.06;4966357;28;20488;-71
2022/03/18 06:01:48;;;;;;;17.10;9.15;;;;;;;-2.73;71.90;95540.75;4992598;28;20030;-75
2022/03/18 06:04:14;;;;;;;14.57;10.32;;;;;;;-2.51;71.83;95564.16;4962742;28;20107;-74
2022/03/18 06:06:44;;;;;;;15.35;8.93;;;;;;;-2.56;71.62;95572.53;4970423;28;20134;-72
2022/03/18 06:11:55;;;;;;;20.27;10.10;;;;;;;-2.84;72.00;95567.31;4963731;28;20041;-75
2022/03/18 06:14:23;;;;;;;14.23;8.48;;;;;;;-2.71;72.39;95585.66;4964275;28;20096;-73
2022/03/18 06:16:50;;;;;;;14.27;8.73;;;;;;;-2.61;72.20;95589.72;4977469;28;20131;-74
2022/03/18 06:19:17;;;;;;;22.60;11.55;;;;;;;-2.65;72.21;95593.72;4961681;28;20590;-74
2022/03/18 06:21:43;;;;;;;21.50;11.30;;;;;;;-2.37;72.08;95584.91;4961709;28;20059;-74
2022/03/18 06:24:10;;;;;;;13.00;9.07;;;;;;;-2.46;70.63;95583.44;4979206;28;20343;-73
2022/03/18 06:26:35;;;;;;;13.18;7.95;;;;;;;-2.43;69.86;95575.25;4964309;28;20457;-74
2022/03/18 06:29:05;;;;;;;15.25;9.80;;;;;;;-2.23;69.05;95591.03;4957706;28;20018;-74
2022/03/18 06:31:31;;;;;;;11.80;8.07;;;;;;;-2.72;68.14;95586.63;4965585;28;20414;-74
2022/03/18 06:34:02;;;;;;;11.93;7.97;;;;;;;-2.53;67.03;95616.44;4962475;28;20069;-73
2022/03/18 06:36:28;;;;;;;11.82;7.18;;;;;;;-2.54;65.77;95608.84;4965423;28;20101;-74
2022/03/18 06:38:54;;;;;;;12.65;7.07;;;;;;;-2.33;65.27;95624.44;4962459;28;20678;-71
2022/03/18 06:41:19;;;;;;;12.73;7.25;;;;;;;-2.29;64.76;95617.88;4967199;28;20031;-71
2022/03/18 06:43:47;;;;;;;13.70;8.52;;;;;;;-2.02;64.34;95639.69;4958537;28;20483;-75
2022/03/18 06:46:14;;;;;;;13.60;8.38;;;;;;;-2.09;62.99;95639.66;4966556;28;20041;-74
2022/03/18 06:48:40;;;;;;;14.85;8.50;;;;;;;-1.89;63.15;95643.19;4961552;28;20703;-73
2022/03/18 06:51:05;;;;;;;13.07;7.70;;;;;;;-2.46;61.82;95564.41;4966855;28;20061;-74
2022/03/18 06:53:31;;;;;;;12.18;7.88;;;;;;;-1.66;61.88;95644.75;4961698;28;20476;-73
2022/03/18 06:55:56;;;;;;;10.23;6.60;;;;;;;-1.70;61.32;95622.66;4969539;28;20461;-74
2022/03/18 06:58:21;;;;;;;10.45;6.75;;;;;;;-1.55;60.25;95628.53;4970677;28;20062;-74
2022/03/18 07:00:47;;;;;;;11.30;6.70;;;;;;;-1.56;59.03;95645.22;4964931;28;20498;-74
2022/03/18 07:03:13;;;;;;;10.88;7.72;;;;;;;-1.88;58.79;95620.53;4964734;28;20287;-75
2022/03/18 07:05:38;;;;;;;11.23;6.88;;;;;;;-1.95;59.64;95623.09;4963485;28;21835;-75
2022/03/18 07:08:04;;;;;;;10.63;6.97;;;;;;;-1.50;60.21;95658.28;4968127;28;20051;-74
2022/03/18 07:10:32;;;;;;;11.98;7.65;;;;;;;-1.60;60.29;95657.00;4966351;28;20540;-72
2022/03/18 07:12:58;;;;;;;12.05;7.63;;;;;;;-1.62;60.86;95640.75;4971729;28;20043;-71
2022/03/18 07:15:23;;;;;;;14.10;8.30;;;;;;;-1.84;59.38;95653.88;4968783;28;20110;-74
2022/03/18 07:17:55;;;;;;;12.88;7.30;;;;;;;-1.73;60.40;95675.19;4968021;28;20045;-74
2022/03/18 07:20:24;;;;;;;12.25;7.57;;;;;;;-1.70;60.87;95664.41;4966955;28;20505;-73
2022/03/18 07:23:22;;;;;;;12.20;6.78;;;;;;;-1.64;60.66;95663.63;4966388;28;20038;-74
2022/03/18 07:25:48;;;;;;;13.00;7.78;;;;;;;-1.59;60.58;95666.44;4963796;28;20038;-74
2022/03/18 07:28:16;;;;;;;12.68;7.45;;;;;;;-1.88;60.53;95651.84;4968230;28;20433;-74
2022/03/18 07:30:44;;;;;;;13.68;7.65;;;;;;;-1.84;60.39;95664.28;4964208;28;20424;-74
2022/03/18 07:33:10;;;;;;;13.82;7.43;;;;;;;-2.14;61.07;95654.28;4966355;28;20041;-74
2022/03/18 07:35:36;;;;;;;11.90;7.55;;;;;;;-1.84;61.34;95669.50;4963714;28;20038;-74
2022/03/18 07:38:05;;;;;;;9.48;6.20;;;;;;;-1.93;61.61;95685.50;4969419;28;20030;-75
2022/03/18 07:40:30;;;;;;;10.23;6.85;;;;;;;-2.13;60.64;95648.84;4962831;28;20098;-75
2022/03/18 07:42:58;;;;;;;17.25;8.55;;;;;;;-1.65;60.11;95667.22;4967701;28;20030;-75
2022/03/18 07:45:28;;;;;;;15.70;7.50;;;;;;;-1.60;59.77;95685.72;4964667;28;20057;-73
2022/03/18 07:47:55;;;;;;;11.70;7.28;;;;;;;-1.87;57.99;95658.66;4971295;28;20128;-75
2022/03/18 07:50:22;;;;;;;13.07;7.07;;;;;;;-1.69;57.11;95692.06;4964494;28;20350;-74
2022/03/18 07:52:49;;;;;;;12.35;5.80;;;;;;;-1.83;57.35;95692.00;4969779;28;20030;-73
2022/03/18 07:55:16;;;;;;;11.30;7.28;;;;;;;-1.88;57.20;95665.69;4967651;28;20534;-74
2022/03/18 07:57:42;;;;;;;9.90;5.65;;;;;;;-1.79;57.27;95691.59;4966346;28;20088;-75
2022/03/18 08:00:09;;;;;;;11.07;6.57;;;;;;;-1.80;56.46;95677.75;4965909;28;20042;-74
2022/03/18 08:02:34;;;;;;;10.32;6.30;;;;;;;-1.56;55.71;95697.41;4965897;28;20066;-74
2022/03/18 08:05:00;;;;;;;11.13;6.30;;;;;;;-1.90;55.20;95622.53;4959676;28;20460;-74
2022/03/18 08:07:26;;;;;;;9.57;6.32;;;;;;;-1.48;56.18;95705.06;4964604;28;20441;-72
2022/03/18 08:09:52;;;;;;;10.13;6.70;;;;;;;-1.56;56.26;95695.59;4982085;28;20160;-74
2022/03/18 08:12:17;;;;;;;9.18;6.10;;;;;;;-1.43;56.09;95687.03;4960573;28;20069;-75
2022/03/18 08:14:43;;;;;;;9.73;6.00;;;;;;;-1.39;55.96;95669.97;4960406;28;20042;-74
2022/03/18 08:17:08;;;;;;;8.18;5.82;;;;;;;-1.84;55.27;95604.31;4964227;28;20117;-74
2022/03/18 08:19:34;;;;;;;8.55;6.30;;;;;;;-1.11;54.64;95688.16;4980280;28;20046;-73
2022/03/18 08:22:01;;;;;;;10.35;5.93;;;;;;;-1.13;54.76;95672.72;4960678;28;20527;-75
2022/03/18 08:24:27;;;;;;;12.40;6.30;;;;;;;-1.19;53.73;95693.56;4969844;28;20027;-75
2022/03/18 08:26:54;;;;;;;6.78;5.90;;;;;;;-0.85;54.35;95683.06;4968253;28;20417;-75
2022/03/18 08:29:19;;;;;;;9.95;6.13;;;;;;;-0.84;53.93;95670.78;4970809;28;20046;-74
2022/03/18 08:31:45;;;;;;;11.45;6.53;;;;;;;-0.71;51.92;95702.19;4963214;28;20113;-74
2022/03/18 08:34:10;;;;;;;15.23;6.72;;;;;;;-1.31;51.80;95669.03;4998360;28;20130;-74
2022/03/18 08:36:35;;;;;;;7.75;5.90;;;;;;;-1.15;51.31;95700.81;4970318;28;20158;-74
2022/03/18 08:39:05;;;;;;;8.05;5.63;;;;;;;-1.30;50.90;95701.94;4965108;28;20046;-72
2022/03/18 08:41:30;;;;;;;9.43;6.68;;;;;;;-1.66;50.30;95660.41;4964868;28;20038;-74
2022/03/18 08:43:55;;;;;;;10.70;6.15;;;;;;;-1.50;51.18;95705.25;4966421;28;20077;-74
2022/03/18 08:46:21;;;;;;;13.20;7.28;;;;;;;-1.46;51.73;95703.09;4981065;28;20413;-74
2022/03/18 08:48:46;;;;;;;9.25;4.68;;;;;;;-1.37;51.40;95701.94;4969747;28;20314;-74
2022/03/18 08:51:12;;;;;;;9.15;6.60;;;;;;;-1.36;51.47;95687.06;4982304;28;20060;-73
2022/03/18 08:53:37;;;;;;;8.82;5.65;;;;;;;-1.38;50.43;95706.34;4967107;28;20099;-75
2022/03/18 08:56:03;;;;;;;9.15;6.18;;;;;;;-1.27;50.45;95650.16;4956580;28;20035;-75
2022/03/18 08:58:29;;;;;;;8.00;6.68;;;;;;;-0.91;50.49;95701.31;4966778;28;20045;-74
2022/03/18 09:00:54;;;;;;;8.55;5.82;;;;;;;-1.00;47.54;95691.03;4959773;28;20035;-75
2022/03/18 09:03:22;;;;;;;10.45;6.78;;;;;;;-1.10;47.41;95669.69;4964720;28;20489;-72
2022/03/18 09:05:47;;;;;;;8.68;6.07;;;;;;;-0.71;48.77;95678.66;4962073;28;20183;-74
2022/03/18 09:08:14;;;;;;;10.10;5.97;;;;;;;-0.61;47.50;95663.41;4978654;28;20041;-74
2022/03/18 09:10:40;;;;;;;8.93;6.20;;;;;;;-0.65;47.08;95670.03;4963068;28;20044;-73
2022/03/18 09:13:06;;;;;;;9.40;5.22;;;;;;;-0.32;47.93;95683.97;4958486;28;20389;-75
2022/03/18 09:15:31;;;;;;;10.40;5.40;;;;;;;-1.00;46.85;95662.31;4960673;28;21130;-74
2022/03/18 09:17:57;;;;;;;12.07;6.93;;;;;;;-0.63;47.01;95660.97;4964103;28;20030;-74
2022/03/18 09:20:23;;;;;;;11.00;6.80;;;;;;;-0.40;47.11;95676.31;4959780;28;20069;-74
2022/03/18 09:22:49;;;;;;;12.93;6.82;;;;;;;-0.04;47.54;95691.63;4993257;28;21055;-75
2022/03/18 09:25:14;;;;;;;10.13;6.13;;;;;;;-0.00;47.79;95699.88;4961161;28;20030;-74
2022/03/18 09:27:41;;;;;;;10.38;6.65;;;;;;;-0.50;48.40;95688.97;4961668;28;20034;-74
2022/03/18 09:30:07;;;;;;;9.38;5.63;;;;;;;-0.49;50.18;95689.78;4957989;28;20450;-73
2022/03/18 09:32:33;;;;;;;13.32;6.05;;;;;;;-0.25;50.43;95687.41;4959632;28;20600;-75
2022/03/18 09:34:59;;;;;;;7.35;5.15;;;;;;;-0.03;48.39;95679.34;4964090;28;20332;-73
2022/03/18 09:37:24;;;;;;;11.57;6.10;;;;;;;-0.03;47.21;95667.06;4960666;28;20034;-75
2022/03/18 09:39:50;;;;;;;10.23;6.25;;;;;;;-0.07;46.31;95674.53;4960980;28;20077;-75
2022/03/18 09:42:16;;;;;;;9.77;6.07;;;;;;;-0.05;46.11;95649.97;4974706;28;20510;-75
2022/03/18 09:44:41;;;;;;;13.15;5.78;;;;;;;0.09;46.32;95652.38;4961419;28;20611;-75
2022/03/18 09:47:08;;;;;;;8.55;5.45;;;;;;;0.47;44.80;95686.56;4965298;28;20026;-75
2022/03/18 09:49:35;;;;;;;12.77;6.32;;;;;;;-0.08;44.91;95651.97;4974635;28;20040;-74
2022/03/18 09:52:03;;;;;;;13.48;8.10;;;;;;;-0.07;46.03;95655.41;4961346;28;20045;-75
2022/03/18 09:54:32;;;;;;;9.18;5.28;;;;;;;0.03;45.40;95683.78;4958137;28;20039;-75
2022/03/18 09:56:58;;;;;;;12.77;6.57;;;;;;;0.09;46.27;95693.44;4960177;28;20412;-74
2022/03/18 09:59:27;;;;;;;10.50;6.18;;;;;;;-0.10;45.02;95669.72;4959781;28;20026;-73
2022/03/18 10:02:24;;;;;;;7.90;5.70;;;;;;;0.46;45.41;95684.13;4960544;28;20033;-75
2022/03/18 10:05:02;;;;;;;10.15;5.88;;;;;;;-0.03;43.82;95600.88;4959462;28;20082;-75
2022/03/18 10:07:29;;;;;;;9.68;6.00;;;;;;;0.59;44.88;95686.75;4992968;28;20046;-74
2022/03/18 10:10:04;;;;;;;9.90;5.22;;;;;;;0.53;43.73;95690.16;4960345;28;20030;-74
2022/03/18 10:12:41;;;;;;;10.68;6.15;;;;;;;0.08;44.00;95691.81;4978540;28;20541;-74
2022/03/18 10:15:17;;;;;;;10.25;5.93;;;;;;;0.17;44.96;95685.38;4953353;28;20100;-75
2022/03/18 10:17:46;;;;;;;7.82;5.32;;;;;;;0.19;43.72;95678.13;4959094;28;20142;-74
2022/03/18 10:20:50;;;;;;;9.35;6.13;;;;;;;0.34;44.36;95681.34;4959634;28;20117;-75
2022/03/18 10:23:15;;;;;;;7.78;5.22;;;;;;;0.44;43.54;95686.97;4962922;28;20058;-74
2022/03/18 10:25:55;;;;;;;11.85;5.68;;;;;;;0.48;43.21;95650.72;4960005;28;20034;-74
2022/03/18 10:28:37;;;;;;;10.55;5.50;;;;;;;0.15;43.54;95682.19;4955414;28;20051;-75
2022/03/18 10:31:20;;;;;;;10.80;5.18;;;;;;;0.45;44.30;95685.94;4966183;28;20101;-74
2022/03/18 10:39:38;;;;;;;12.38;6.57;;;;;;;0.28;43.05;95677.72;4959113;28;20049;-72
2022/03/18 10:42:09;;;;;;;8.43;5.32;;;;;;;0.23;43.63;95674.91;4957743;28;20042;-72
2022/03/18 10:44:55;;;;;;;9.52;6.15;;;;;;;0.08;44.27;95681.38;4954570;28;20448;-71
2022/03/18 10:47:23;;;;;;;12.18;6.03;;;;;;;-0.08;45.58;95686.00;4961446;28;20038;-71
2022/03/18 10:49:48;;;;;;;12.20;5.80;;;;;;;-0.09;45.40;95678.34;4961879;28;20051;-72
2022/03/18 10:52:15;;;;;;;8.30;6.10;;;;;;;0.07;45.47;95674.50;4963145;28;20050;-71
2022/03/18 10:54:40;;;;;;;8.32;6.13;;;;;;;0.06;45.03;95672.91;4960030;28;20049;-71
2022/03/18 10:57:06;;;;;;;12.20;6.78;;;;;;;-0.19;43.95;95681.34;4964162;28;20031;-71
2022/03/18 10:59:32;;;;;;;13.02;6.85;;;;;;;-0.13;45.25;95670.09;4963673;28;20168;-72
2022/03/18 11:01:58;;;;;;;8.52;5.47;;;;;;;-0.00;42.66;95668.50;4961648;28;20507;-72
2022/03/18 11:04:25;;;;;;;9.23;5.70;;;;;;;-0.19;42.83;95660.44;4961463;28;20513;-72
2022/03/18 11:12:35;;;;;;;9.85;7.07;;;;;;;-0.09;44.00;95634.66;4956057;28;20105;-73
2022/03/18 11:15:04;;;;;;;9.00;5.55;;;;;;;0.10;44.13;95637.50;4960630;28;20073;-72
2022/03/18 11:17:30;;;;;;;9.65;6.63;;;;;;;0.24;42.80;95654.78;4957234;28;20519;-72
2022/03/18 11:19:59;;;;;;;13.88;6.45;;;;;;;0.49;42.74;95657.56;4958785;28;20023;-71
2022/03/18 11:22:25;;;;;;;7.25;5.38;;;;;;;0.44;42.20;95655.56;4958946;28;20038;-71
2022/03/18 11:24:53;;;;;;;8.80;5.18;;;;;;;0.37;42.12;95641.66;4957816;28;20066;-74
2022/03/18 11:27:19;;;;;;;10.68;6.63;;;;;;;0.43;42.06;95663.59;4959569;28;20433;-75
2022/03/18 11:29:44;;;;;;;8.98;6.13;;;;;;;0.32;41.06;95668.44;4970963;28;20510;-74
2022/03/18 11:32:12;;;;;;;9.70;5.15;;;;;;;0.20;41.41;95658.81;4954939;28;20031;-73
2022/03/18 11:35:03;;;;;;;9.45;5.90;;;;;;;0.41;43.28;95629.78;4970689;28;20513;-74
2022/03/18 11:37:29;;;;;;;8.82;6.03;;;;;;;0.44;41.34;95660.78;4960040;28;20525;-74
2022/03/18 11:40:19;;;;;;;8.55;5.38;;;;;;;0.59;40.11;95650.88;4964347;28;20060;-73
2022/03/18 11:42:48;;;;;;;10.45;5.65;;;;;;;0.60;41.06;95649.84;4966458;28;20563;-74
2022/03/18 11:45:36;;;;;;;9.40;6.15;;;;;;;0.74;39.81;95625.22;4962848;28;20046;-73
2022/03/18 11:48:34;;;;;;;5.88;4.75;;;;;;;0.95;39.81;95654.78;4971939;28;20049;-75